sensor_id;sensor_type;location;lat;lon;timestamp;P1;durP1;ratioP1;P2;durP2;ratioP2
29422;SDS011;16399;51.686;8.684;2023-02-12T00:02:33;95.50;;;40.90;;
29422;SDS011;16399;51.686;8.684;2023-02-12T00:05:36;94.32;;;39.53;;
29422;SDS011;16399;51.686;8.684;2023-02-12T00:08:39;94.58;;;40.83;;
29422;SDS011;16399;51.686;8.684;2023-02-12T00:11:42;99.17;;;39.20;;
29422;SDS011;16399;51.686;8.684;2023-02-12T00:14:44;95.67;;;39.65;;
29422;SDS011;16399;51.686;8.684;2023-02-12T00:17:46;97.33;;;39.48;;
29422;SDS011;16399;51.686;8.684;2023-02-12T00:20:48;92.27;;;38.45;;
29422;SDS011;16399;51.686;8.684;2023-02-12T00:23:51;83.22;;;36.90;;
29422;SDS011;16399;51.686;8.684;2023-02-12T00:30:15;90.45;;;36.65;;
29422;SDS011;16399;51.686;8.684;2023-02-12T00:33:17;88.15;;;38.15;;
29422;SDS011;16399;51.686;8.684;2023-02-12T00:36:21;87.80;;;36.35;;
29422;SDS011;16399;51.686;8.684;2023-02-12T00:42:26;94.00;;;37.33;;
29422;SDS011;16399;51.686;8.684;2023-02-12T00:45:29;83.25;;;37.17;;
29422;SDS011;16399;51.686;8.684;2023-02-12T00:48:32;86.92;;;37.40;;
29422;SDS011;16399;51.686;8.684;2023-02-12T00:51:34;94.07;;;37.63;;
29422;SDS011;16399;51.686;8.684;2023-02-12T00:54:36;86.17;;;37.13;;
29422;SDS011;16399;51.686;8.684;2023-02-12T00:57:39;94.97;;;40.15;;
29422;SDS011;16399;51.686;8.684;2023-02-12T01:00:41;98.05;;;39.53;;
29422;SDS011;16399;51.686;8.684;2023-02-12T01:03:44;87.70;;;38.40;;
29422;SDS011;16399;51.686;8.684;2023-02-12T01:06:46;83.25;;;37.30;;
29422;SDS011;16399;51.686;8.684;2023-02-12T01:09:49;85.05;;;39.40;;
29422;SDS011;16399;51.686;8.684;2023-02-12T01:12:51;101.12;;;38.60;;
29422;SDS011;16399;51.686;8.684;2023-02-12T01:16:07;89.15;;;38.92;;
29422;SDS011;16399;51.686;8.684;2023-02-12T01:19:12;95.90;;;39.38;;
29422;SDS011;16399;51.686;8.684;2023-02-12T01:22:14;91.15;;;39.20;;
29422;SDS011;16399;51.686;8.684;2023-02-12T01:25:17;93.52;;;39.50;;
29422;SDS011;16399;51.686;8.684;2023-02-12T01:28:19;94.50;;;41.90;;
29422;SDS011;16399;51.686;8.684;2023-02-12T01:31:22;86.47;;;38.83;;
29422;SDS011;16399;51.686;8.684;2023-02-12T01:34:27;91.67;;;39.67;;
29422;SDS011;16399;51.686;8.684;2023-02-12T01:37:29;94.55;;;39.18;;
29422;SDS011;16399;51.686;8.684;2023-02-12T01:40:31;83.50;;;38.35;;
29422;SDS011;16399;51.686;8.684;2023-02-12T01:43:34;93.40;;;39.05;;
29422;SDS011;16399;51.686;8.684;2023-02-12T01:46:37;92.12;;;40.28;;
29422;SDS011;16399;51.686;8.684;2023-02-12T01:49:43;87.05;;;39.05;;
29422;SDS011;16399;51.686;8.684;2023-02-12T01:52:53;88.55;;;40.12;;
29422;SDS011;16399;51.686;8.684;2023-02-12T01:55:55;91.82;;;37.53;;
29422;SDS011;16399;51.686;8.684;2023-02-12T01:58:58;85.72;;;36.45;;
29422;SDS011;16399;51.686;8.684;2023-02-12T02:02:01;85.83;;;39.75;;
29422;SDS011;16399;51.686;8.684;2023-02-12T02:05:04;81.72;;;38.10;;
29422;SDS011;16399;51.686;8.684;2023-02-12T02:08:08;85.15;;;36.95;;
29422;SDS011;16399;51.686;8.684;2023-02-12T02:11:11;87.00;;;37.45;;
29422;SDS011;16399;51.686;8.684;2023-02-12T02:14:31;78.97;;;37.17;;
29422;SDS011;16399;51.686;8.684;2023-02-12T02:17:40;86.47;;;35.08;;
29422;SDS011;16399;51.686;8.684;2023-02-12T02:21:11;81.47;;;36.93;;
29422;SDS011;16399;51.686;8.684;2023-02-12T02:24:25;84.83;;;37.03;;
29422;SDS011;16399;51.686;8.684;2023-02-12T02:27:29;88.30;;;35.88;;
29422;SDS011;16399;51.686;8.684;2023-02-12T02:30:53;77.08;;;33.73;;
29422;SDS011;16399;51.686;8.684;2023-02-12T02:37:39;75.32;;;34.58;;
29422;SDS011;16399;51.686;8.684;2023-02-12T02:40:52;77.35;;;34.48;;
29422;SDS011;16399;51.686;8.684;2023-02-12T02:43:55;71.28;;;32.70;;
29422;SDS011;16399;51.686;8.684;2023-02-12T02:46:57;79.27;;;35.63;;
29422;SDS011;16399;51.686;8.684;2023-02-12T02:53:07;75.35;;;34.05;;
29422;SDS011;16399;51.686;8.684;2023-02-12T02:56:12;79.67;;;35.00;;
29422;SDS011;16399;51.686;8.684;2023-02-12T02:59:27;79.85;;;35.70;;
29422;SDS011;16399;51.686;8.684;2023-02-12T03:02:26;76.25;;;33.70;;
29422;SDS011;16399;51.686;8.684;2023-02-12T03:05:41;79.05;;;34.38;;
29422;SDS011;16399;51.686;8.684;2023-02-12T03:08:41;74.25;;;32.83;;
29422;SDS011;16399;51.686;8.684;2023-02-12T03:11:46;81.45;;;34.65;;
29422;SDS011;16399;51.686;8.684;2023-02-12T03:14:52;79.60;;;35.58;;
29422;SDS011;16399;51.686;8.684;2023-02-12T03:17:55;74.50;;;34.23;;
29422;SDS011;16399;51.686;8.684;2023-02-12T03:21:01;81.00;;;34.35;;
29422;SDS011;16399;51.686;8.684;2023-02-12T03:27:25;68.55;;;33.75;;
29422;SDS011;16399;51.686;8.684;2023-02-12T03:30:26;72.95;;;33.15;;
29422;SDS011;16399;51.686;8.684;2023-02-12T03:39:59;79.40;;;34.43;;
29422;SDS011;16399;51.686;8.684;2023-02-12T03:43:12;81.15;;;34.00;;
29422;SDS011;16399;51.686;8.684;2023-02-12T03:46:38;78.65;;;33.15;;
29422;SDS011;16399;51.686;8.684;2023-02-12T03:49:51;80.03;;;34.13;;
29422;SDS011;16399;51.686;8.684;2023-02-12T03:52:57;73.67;;;33.40;;
29422;SDS011;16399;51.686;8.684;2023-02-12T03:56:10;74.45;;;34.00;;
29422;SDS011;16399;51.686;8.684;2023-02-12T03:59:08;75.62;;;32.98;;
29422;SDS011;16399;51.686;8.684;2023-02-12T04:02:11;70.97;;;31.55;;
29422;SDS011;16399;51.686;8.684;2023-02-12T04:05:15;70.08;;;32.78;;
29422;SDS011;16399;51.686;8.684;2023-02-12T04:08:19;73.40;;;33.30;;
29422;SDS011;16399;51.686;8.684;2023-02-12T04:11:40;70.85;;;33.65;;
29422;SDS011;16399;51.686;8.684;2023-02-12T04:17:54;74.80;;;33.75;;
29422;SDS011;16399;51.686;8.684;2023-02-12T04:24:32;73.52;;;33.60;;
29422;SDS011;16399;51.686;8.684;2023-02-12T04:27:36;71.77;;;32.87;;
29422;SDS011;16399;51.686;8.684;2023-02-12T04:30:46;69.60;;;31.77;;
29422;SDS011;16399;51.686;8.684;2023-02-12T04:33:46;73.28;;;32.78;;
29422;SDS011;16399;51.686;8.684;2023-02-12T04:40:20;67.53;;;33.28;;
29422;SDS011;16399;51.686;8.684;2023-02-12T04:43:30;73.97;;;33.30;;
29422;SDS011;16399;51.686;8.684;2023-02-12T04:46:35;63.87;;;31.45;;
29422;SDS011;16399;51.686;8.684;2023-02-12T04:49:37;67.22;;;32.10;;
29422;SDS011;16399;51.686;8.684;2023-02-12T04:52:39;71.53;;;32.38;;
29422;SDS011;16399;51.686;8.684;2023-02-12T04:55:42;68.70;;;32.08;;
29422;SDS011;16399;51.686;8.684;2023-02-12T04:58:44;67.80;;;31.17;;
29422;SDS011;16399;51.686;8.684;2023-02-12T05:01:46;73.92;;;33.30;;
29422;SDS011;16399;51.686;8.684;2023-02-12T05:04:49;67.42;;;33.02;;
29422;SDS011;16399;51.686;8.684;2023-02-12T05:07:51;67.22;;;32.85;;
29422;SDS011;16399;51.686;8.684;2023-02-12T05:10:53;70.95;;;33.18;;
29422;SDS011;16399;51.686;8.684;2023-02-12T05:13:56;66.80;;;33.42;;
29422;SDS011;16399;51.686;8.684;2023-02-12T05:16:58;74.72;;;33.45;;
29422;SDS011;16399;51.686;8.684;2023-02-12T05:20:01;68.50;;;32.95;;
29422;SDS011;16399;51.686;8.684;2023-02-12T05:23:03;66.67;;;31.75;;
29422;SDS011;16399;51.686;8.684;2023-02-12T05:26:07;70.47;;;32.55;;
29422;SDS011;16399;51.686;8.684;2023-02-12T05:29:14;75.00;;;33.78;;
29422;SDS011;16399;51.686;8.684;2023-02-12T05:32:17;71.02;;;31.60;;
29422;SDS011;16399;51.686;8.684;2023-02-12T05:35:19;62.43;;;31.40;;
29422;SDS011;16399;51.686;8.684;2023-02-12T05:38:21;71.25;;;32.13;;
29422;SDS011;16399;51.686;8.684;2023-02-12T05:41:24;68.42;;;30.32;;
29422;SDS011;16399;51.686;8.684;2023-02-12T05:44:27;69.95;;;32.65;;
29422;SDS011;16399;51.686;8.684;2023-02-12T05:47:29;67.15;;;31.75;;
29422;SDS011;16399;51.686;8.684;2023-02-12T05:50:31;72.53;;;30.60;;
29422;SDS011;16399;51.686;8.684;2023-02-12T05:53:34;71.53;;;32.23;;
29422;SDS011;16399;51.686;8.684;2023-02-12T05:56:42;70.90;;;31.95;;
29422;SDS011;16399;51.686;8.684;2023-02-12T05:59:45;66.67;;;30.55;;
29422;SDS011;16399;51.686;8.684;2023-02-12T06:02:48;74.03;;;33.08;;
29422;SDS011;16399;51.686;8.684;2023-02-12T06:05:50;70.17;;;30.43;;
29422;SDS011;16399;51.686;8.684;2023-02-12T06:08:53;69.55;;;31.68;;
29422;SDS011;16399;51.686;8.684;2023-02-12T06:11:56;70.95;;;31.45;;
29422;SDS011;16399;51.686;8.684;2023-02-12T06:14:58;66.80;;;30.00;;
29422;SDS011;16399;51.686;8.684;2023-02-12T06:18:01;71.42;;;32.85;;
29422;SDS011;16399;51.686;8.684;2023-02-12T06:21:03;68.07;;;32.30;;
29422;SDS011;16399;51.686;8.684;2023-02-12T06:24:06;73.42;;;31.57;;
29422;SDS011;16399;51.686;8.684;2023-02-12T06:27:10;68.70;;;31.45;;
29422;SDS011;16399;51.686;8.684;2023-02-12T06:30:12;68.95;;;31.15;;
29422;SDS011;16399;51.686;8.684;2023-02-12T06:33:15;64.07;;;29.82;;
29422;SDS011;16399;51.686;8.684;2023-02-12T06:36:17;65.20;;;29.42;;
29422;SDS011;16399;51.686;8.684;2023-02-12T06:39:20;66.55;;;30.32;;
29422;SDS011;16399;51.686;8.684;2023-02-12T06:42:22;67.60;;;31.62;;
29422;SDS011;16399;51.686;8.684;2023-02-12T06:45:24;60.80;;;29.40;;
29422;SDS011;16399;51.686;8.684;2023-02-12T06:48:27;64.60;;;29.72;;
29422;SDS011;16399;51.686;8.684;2023-02-12T06:51:30;59.80;;;29.63;;
29422;SDS011;16399;51.686;8.684;2023-02-12T06:54:32;63.38;;;29.55;;
29422;SDS011;16399;51.686;8.684;2023-02-12T06:57:35;64.42;;;29.92;;
29422;SDS011;16399;51.686;8.684;2023-02-12T07:00:37;67.95;;;29.32;;
29422;SDS011;16399;51.686;8.684;2023-02-12T07:03:40;62.10;;;28.87;;
29422;SDS011;16399;51.686;8.684;2023-02-12T07:06:42;63.55;;;28.52;;
29422;SDS011;16399;51.686;8.684;2023-02-12T07:09:45;67.00;;;29.42;;
29422;SDS011;16399;51.686;8.684;2023-02-12T07:12:47;65.52;;;29.65;;
29422;SDS011;16399;51.686;8.684;2023-02-12T07:15:49;61.90;;;27.65;;
29422;SDS011;16399;51.686;8.684;2023-02-12T07:18:51;62.65;;;28.17;;
29422;SDS011;16399;51.686;8.684;2023-02-12T07:21:54;64.95;;;29.05;;
29422;SDS011;16399;51.686;8.684;2023-02-12T07:24:57;62.60;;;29.55;;
29422;SDS011;16399;51.686;8.684;2023-02-12T07:27:59;65.42;;;31.27;;
29422;SDS011;16399;51.686;8.684;2023-02-12T07:31:08;64.07;;;28.27;;
29422;SDS011;16399;51.686;8.684;2023-02-12T07:34:12;63.15;;;28.90;;
29422;SDS011;16399;51.686;8.684;2023-02-12T07:37:14;67.87;;;28.95;;
29422;SDS011;16399;51.686;8.684;2023-02-12T07:40:18;60.47;;;28.77;;
29422;SDS011;16399;51.686;8.684;2023-02-12T07:43:21;57.43;;;27.30;;
29422;SDS011;16399;51.686;8.684;2023-02-12T07:46:25;59.73;;;29.50;;
29422;SDS011;16399;51.686;8.684;2023-02-12T07:49:31;67.20;;;29.32;;
29422;SDS011;16399;51.686;8.684;2023-02-12T07:52:33;68.10;;;30.60;;
29422;SDS011;16399;51.686;8.684;2023-02-12T07:55:35;64.27;;;29.72;;
29422;SDS011;16399;51.686;8.684;2023-02-12T07:58:38;63.10;;;28.23;;
29422;SDS011;16399;51.686;8.684;2023-02-12T08:01:47;60.05;;;27.35;;
29422;SDS011;16399;51.686;8.684;2023-02-12T08:04:54;63.00;;;29.77;;
29422;SDS011;16399;51.686;8.684;2023-02-12T08:07:57;59.42;;;27.67;;
29422;SDS011;16399;51.686;8.684;2023-02-12T08:10:59;61.33;;;28.00;;
29422;SDS011;16399;51.686;8.684;2023-02-12T08:14:01;54.60;;;27.48;;
29422;SDS011;16399;51.686;8.684;2023-02-12T08:17:04;58.28;;;28.32;;
29422;SDS011;16399;51.686;8.684;2023-02-12T08:20:08;62.38;;;28.75;;
29422;SDS011;16399;51.686;8.684;2023-02-12T08:23:10;69.10;;;28.17;;
29422;SDS011;16399;51.686;8.684;2023-02-12T08:26:35;55.45;;;26.07;;
29422;SDS011;16399;51.686;8.684;2023-02-12T08:29:22;62.00;;;28.42;;
29422;SDS011;16399;51.686;8.684;2023-02-12T08:32:26;59.48;;;27.35;;
29422;SDS011;16399;51.686;8.684;2023-02-12T08:35:28;49.60;;;25.55;;
29422;SDS011;16399;51.686;8.684;2023-02-12T08:38:31;56.35;;;25.97;;
29422;SDS011;16399;51.686;8.684;2023-02-12T08:41:34;59.65;;;26.25;;
29422;SDS011;16399;51.686;8.684;2023-02-12T08:44:37;55.43;;;26.07;;
29422;SDS011;16399;51.686;8.684;2023-02-12T08:47:40;57.48;;;25.45;;
29422;SDS011;16399;51.686;8.684;2023-02-12T08:50:42;55.00;;;24.92;;
29422;SDS011;16399;51.686;8.684;2023-02-12T08:53:46;51.65;;;24.05;;
29422;SDS011;16399;51.686;8.684;2023-02-12T08:56:49;47.20;;;22.65;;
29422;SDS011;16399;51.686;8.684;2023-02-12T08:59:53;49.00;;;23.40;;
29422;SDS011;16399;51.686;8.684;2023-02-12T09:02:55;48.85;;;24.70;;
29422;SDS011;16399;51.686;8.684;2023-02-12T09:05:58;49.10;;;23.67;;
29422;SDS011;16399;51.686;8.684;2023-02-12T09:09:05;45.85;;;23.05;;
29422;SDS011;16399;51.686;8.684;2023-02-12T09:12:08;45.67;;;22.07;;
29422;SDS011;16399;51.686;8.684;2023-02-12T09:15:10;41.05;;;21.90;;
29422;SDS011;16399;51.686;8.684;2023-02-12T09:18:12;50.10;;;22.98;;
29422;SDS011;16399;51.686;8.684;2023-02-12T09:21:18;42.93;;;21.42;;
29422;SDS011;16399;51.686;8.684;2023-02-12T09:24:19;46.13;;;22.57;;
29422;SDS011;16399;51.686;8.684;2023-02-12T09:27:22;45.85;;;22.15;;
29422;SDS011;16399;51.686;8.684;2023-02-12T09:30:24;42.20;;;21.48;;
29422;SDS011;16399;51.686;8.684;2023-02-12T09:33:26;45.70;;;21.90;;
29422;SDS011;16399;51.686;8.684;2023-02-12T09:36:29;43.75;;;22.93;;
29422;SDS011;16399;51.686;8.684;2023-02-12T09:39:31;46.60;;;23.87;;
29422;SDS011;16399;51.686;8.684;2023-02-12T09:42:38;48.95;;;21.82;;
29422;SDS011;16399;51.686;8.684;2023-02-12T09:45:50;47.35;;;23.73;;
29422;SDS011;16399;51.686;8.684;2023-02-12T09:48:56;46.53;;;23.50;;
29422;SDS011;16399;51.686;8.684;2023-02-12T09:52:18;48.08;;;23.73;;
29422;SDS011;16399;51.686;8.684;2023-02-12T09:55:22;52.55;;;25.10;;
29422;SDS011;16399;51.686;8.684;2023-02-12T10:01:38;52.03;;;24.98;;
29422;SDS011;16399;51.686;8.684;2023-02-12T10:04:41;41.92;;;23.10;;
29422;SDS011;16399;51.686;8.684;2023-02-12T10:11:00;44.53;;;23.45;;
29422;SDS011;16399;51.686;8.684;2023-02-12T10:14:27;50.63;;;23.30;;
29422;SDS011;16399;51.686;8.684;2023-02-12T10:17:35;43.33;;;23.00;;
29422;SDS011;16399;51.686;8.684;2023-02-12T10:20:51;44.40;;;23.92;;
29422;SDS011;16399;51.686;8.684;2023-02-12T10:27:16;44.67;;;23.35;;
29422;SDS011;16399;51.686;8.684;2023-02-12T10:30:21;52.85;;;23.32;;
29422;SDS011;16399;51.686;8.684;2023-02-12T10:33:29;44.77;;;22.60;;
29422;SDS011;16399;51.686;8.684;2023-02-12T10:39:47;43.30;;;22.60;;
29422;SDS011;16399;51.686;8.684;2023-02-12T10:42:50;50.78;;;23.50;;
29422;SDS011;16399;51.686;8.684;2023-02-12T10:45:53;39.45;;;19.40;;
29422;SDS011;16399;51.686;8.684;2023-02-12T10:48:56;45.12;;;22.13;;
29422;SDS011;16399;51.686;8.684;2023-02-12T10:52:02;39.70;;;21.13;;
29422;SDS011;16399;51.686;8.684;2023-02-12T10:55:25;43.30;;;21.02;;
29422;SDS011;16399;51.686;8.684;2023-02-12T10:58:29;38.08;;;20.15;;
29422;SDS011;16399;51.686;8.684;2023-02-12T11:01:33;38.75;;;20.97;;
29422;SDS011;16399;51.686;8.684;2023-02-12T11:04:37;43.05;;;21.40;;
29422;SDS011;16399;51.686;8.684;2023-02-12T11:07:47;43.50;;;21.48;;
29422;SDS011;16399;51.686;8.684;2023-02-12T11:10:51;40.95;;;20.97;;
29422;SDS011;16399;51.686;8.684;2023-02-12T11:17:59;35.60;;;19.30;;
29422;SDS011;16399;51.686;8.684;2023-02-12T11:20:27;35.78;;;18.37;;
29422;SDS011;16399;51.686;8.684;2023-02-12T11:23:35;36.60;;;19.77;;
29422;SDS011;16399;51.686;8.684;2023-02-12T11:26:41;33.95;;;18.70;;
29422;SDS011;16399;51.686;8.684;2023-02-12T11:29:43;39.58;;;20.00;;
29422;SDS011;16399;51.686;8.684;2023-02-12T11:32:50;31.55;;;15.65;;
29422;SDS011;16399;51.686;8.684;2023-02-12T11:35:54;30.00;;;16.30;;
29422;SDS011;16399;51.686;8.684;2023-02-12T11:38:58;25.40;;;14.00;;
29422;SDS011;16399;51.686;8.684;2023-02-12T11:42:15;22.73;;;11.65;;
29422;SDS011;16399;51.686;8.684;2023-02-12T11:45:20;30.02;;;13.08;;
29422;SDS011;16399;51.686;8.684;2023-02-12T11:48:38;21.77;;;11.70;;
29422;SDS011;16399;51.686;8.684;2023-02-12T11:51:39;22.43;;;11.80;;
29422;SDS011;16399;51.686;8.684;2023-02-12T11:54:41;24.67;;;11.97;;
29422;SDS011;16399;51.686;8.684;2023-02-12T11:57:48;23.75;;;11.88;;
29422;SDS011;16399;51.686;8.684;2023-02-12T12:00:58;26.68;;;11.85;;
29422;SDS011;16399;51.686;8.684;2023-02-12T12:04:04;23.73;;;12.98;;
29422;SDS011;16399;51.686;8.684;2023-02-12T12:07:16;22.93;;;12.15;;
29422;SDS011;16399;51.686;8.684;2023-02-12T12:10:34;26.80;;;13.07;;
29422;SDS011;16399;51.686;8.684;2023-02-12T12:13:46;26.17;;;13.60;;
29422;SDS011;16399;51.686;8.684;2023-02-12T12:17:03;24.30;;;13.20;;
29422;SDS011;16399;51.686;8.684;2023-02-12T12:20:26;31.10;;;14.45;;
29422;SDS011;16399;51.686;8.684;2023-02-12T12:23:31;28.20;;;13.98;;
29422;SDS011;16399;51.686;8.684;2023-02-12T12:26:39;25.35;;;14.20;;
29422;SDS011;16399;51.686;8.684;2023-02-12T12:29:49;28.77;;;14.73;;
29422;SDS011;16399;51.686;8.684;2023-02-12T12:32:55;24.05;;;13.50;;
29422;SDS011;16399;51.686;8.684;2023-02-12T12:36:07;26.87;;;13.85;;
29422;SDS011;16399;51.686;8.684;2023-02-12T12:39:42;23.90;;;12.82;;
29422;SDS011;16399;51.686;8.684;2023-02-12T12:52:35;26.33;;;13.58;;
29422;SDS011;16399;51.686;8.684;2023-02-12T13:02:55;21.10;;;12.50;;
29422;SDS011;16399;51.686;8.684;2023-02-12T13:09:39;21.65;;;13.25;;
29422;SDS011;16399;51.686;8.684;2023-02-12T13:16:22;22.52;;;11.88;;
29422;SDS011;16399;51.686;8.684;2023-02-12T13:23:03;22.50;;;12.10;;
29422;SDS011;16399;51.686;8.684;2023-02-12T13:26:22;23.22;;;11.68;;
29422;SDS011;16399;51.686;8.684;2023-02-12T13:29:32;21.80;;;12.45;;
29422;SDS011;16399;51.686;8.684;2023-02-12T13:32:42;22.42;;;12.05;;
29422;SDS011;16399;51.686;8.684;2023-02-12T13:35:51;21.05;;;11.60;;
29422;SDS011;16399;51.686;8.684;2023-02-12T13:48:45;11.15;;;5.90;;
29422;SDS011;16399;51.686;8.684;2023-02-12T13:55:22;12.13;;;5.97;;
29422;SDS011;16399;51.686;8.684;2023-02-12T14:01:45;12.53;;;5.85;;
29422;SDS011;16399;51.686;8.684;2023-02-12T14:04:52;12.00;;;6.45;;
29422;SDS011;16399;51.686;8.684;2023-02-12T14:07:55;11.97;;;5.75;;
29422;SDS011;16399;51.686;8.684;2023-02-12T14:11:06;12.53;;;5.60;;
29422;SDS011;16399;51.686;8.684;2023-02-12T14:14:13;10.88;;;5.75;;
29422;SDS011;16399;51.686;8.684;2023-02-12T14:20:33;14.30;;;6.47;;
29422;SDS011;16399;51.686;8.684;2023-02-12T14:23:38;11.53;;;5.65;;
29422;SDS011;16399;51.686;8.684;2023-02-12T14:26:42;12.63;;;5.97;;
29422;SDS011;16399;51.686;8.684;2023-02-12T14:30:00;12.35;;;6.58;;
29422;SDS011;16399;51.686;8.684;2023-02-12T14:33:21;9.30;;;4.83;;
29422;SDS011;16399;51.686;8.684;2023-02-12T14:39:38;10.80;;;5.67;;
29422;SDS011;16399;51.686;8.684;2023-02-12T14:42:41;12.05;;;5.95;;
29422;SDS011;16399;51.686;8.684;2023-02-12T14:45:46;11.48;;;5.58;;
29422;SDS011;16399;51.686;8.684;2023-02-12T14:55:19;9.95;;;5.75;;
29422;SDS011;16399;51.686;8.684;2023-02-12T14:58:24;10.75;;;6.08;;
29422;SDS011;16399;51.686;8.684;2023-02-12T15:01:31;12.68;;;6.28;;
29422;SDS011;16399;51.686;8.684;2023-02-12T15:04:35;13.25;;;6.12;;
29422;SDS011;16399;51.686;8.684;2023-02-12T15:07:43;13.43;;;6.35;;
29422;SDS011;16399;51.686;8.684;2023-02-12T15:10:57;11.85;;;5.35;;
29422;SDS011;16399;51.686;8.684;2023-02-12T15:14:00;11.22;;;6.40;;
29422;SDS011;16399;51.686;8.684;2023-02-12T15:17:23;12.47;;;6.05;;
29422;SDS011;16399;51.686;8.684;2023-02-12T15:20:32;11.03;;;5.60;;
29422;SDS011;16399;51.686;8.684;2023-02-12T15:23:38;12.40;;;6.08;;
29422;SDS011;16399;51.686;8.684;2023-02-12T15:26:47;10.32;;;5.47;;
29422;SDS011;16399;51.686;8.684;2023-02-12T15:29:51;9.95;;;5.15;;
29422;SDS011;16399;51.686;8.684;2023-02-12T15:32:54;8.77;;;5.13;;
29422;SDS011;16399;51.686;8.684;2023-02-12T15:39:03;10.13;;;4.62;;
29422;SDS011;16399;51.686;8.684;2023-02-12T15:45:30;8.65;;;4.92;;
29422;SDS011;16399;51.686;8.684;2023-02-12T15:48:34;11.95;;;5.45;;
29422;SDS011;16399;51.686;8.684;2023-02-12T15:51:38;9.38;;;4.95;;
29422;SDS011;16399;51.686;8.684;2023-02-12T15:54:44;10.45;;;4.97;;
29422;SDS011;16399;51.686;8.684;2023-02-12T15:57:48;13.40;;;6.77;;
29422;SDS011;16399;51.686;8.684;2023-02-12T16:00:59;31.25;;;16.65;;
29422;SDS011;16399;51.686;8.684;2023-02-12T16:04:04;25.77;;;14.25;;
29422;SDS011;16399;51.686;8.684;2023-02-12T16:07:08;16.50;;;9.45;;
29422;SDS011;16399;51.686;8.684;2023-02-12T16:10:15;16.12;;;8.20;;
29422;SDS011;16399;51.686;8.684;2023-02-12T16:13:24;12.23;;;6.47;;
29422;SDS011;16399;51.686;8.684;2023-02-12T16:16:44;11.45;;;6.17;;
29422;SDS011;16399;51.686;8.684;2023-02-12T16:19:58;13.62;;;6.53;;
29422;SDS011;16399;51.686;8.684;2023-02-12T16:23:04;12.35;;;6.85;;
29422;SDS011;16399;51.686;8.684;2023-02-12T16:26:05;33.00;;;14.05;;
29422;SDS011;16399;51.686;8.684;2023-02-12T16:29:12;40.48;;;16.07;;
29422;SDS011;16399;51.686;8.684;2023-02-12T16:35:31;9.45;;;5.25;;
29422;SDS011;16399;51.686;8.684;2023-02-12T16:41:50;10.55;;;5.72;;
29422;SDS011;16399;51.686;8.684;2023-02-12T16:44:54;10.75;;;5.65;;
29422;SDS011;16399;51.686;8.684;2023-02-12T16:51:05;12.20;;;6.33;;
29422;SDS011;16399;51.686;8.684;2023-02-12T16:57:33;15.70;;;7.05;;
29422;SDS011;16399;51.686;8.684;2023-02-12T17:00:35;15.50;;;7.85;;
29422;SDS011;16399;51.686;8.684;2023-02-12T17:03:39;14.73;;;8.08;;
29422;SDS011;16399;51.686;8.684;2023-02-12T17:06:41;63.38;;;30.15;;
29422;SDS011;16399;51.686;8.684;2023-02-12T17:09:44;55.12;;;28.12;;
29422;SDS011;16399;51.686;8.684;2023-02-12T17:12:50;20.62;;;11.43;;
29422;SDS011;16399;51.686;8.684;2023-02-12T17:15:57;15.63;;;8.05;;
29422;SDS011;16399;51.686;8.684;2023-02-12T17:19:03;15.93;;;8.78;;
29422;SDS011;16399;51.686;8.684;2023-02-12T17:22:06;15.03;;;8.00;;
29422;SDS011;16399;51.686;8.684;2023-02-12T17:25:10;13.90;;;8.13;;
29422;SDS011;16399;51.686;8.684;2023-02-12T17:28:14;23.00;;;11.80;;
29422;SDS011;16399;51.686;8.684;2023-02-12T17:31:16;18.02;;;10.90;;
29422;SDS011;16399;51.686;8.684;2023-02-12T17:34:20;20.30;;;10.50;;
29422;SDS011;16399;51.686;8.684;2023-02-12T17:37:23;15.15;;;9.18;;
29422;SDS011;16399;51.686;8.684;2023-02-12T17:40:26;16.23;;;8.95;;
29422;SDS011;16399;51.686;8.684;2023-02-12T17:43:28;14.35;;;7.87;;
29422;SDS011;16399;51.686;8.684;2023-02-12T17:46:30;16.75;;;9.83;;
29422;SDS011;16399;51.686;8.684;2023-02-12T17:49:33;19.15;;;11.70;;
29422;SDS011;16399;51.686;8.684;2023-02-12T17:52:35;23.50;;;11.85;;
29422;SDS011;16399;51.686;8.684;2023-02-12T17:55:38;19.62;;;10.75;;
29422;SDS011;16399;51.686;8.684;2023-02-12T17:58:41;18.73;;;10.93;;
29422;SDS011;16399;51.686;8.684;2023-02-12T18:01:44;19.42;;;10.72;;
29422;SDS011;16399;51.686;8.684;2023-02-12T18:04:46;22.25;;;12.07;;
29422;SDS011;16399;51.686;8.684;2023-02-12T18:07:49;21.10;;;12.25;;
29422;SDS011;16399;51.686;8.684;2023-02-12T18:10:51;19.27;;;10.55;;
29422;SDS011;16399;51.686;8.684;2023-02-12T18:13:54;19.62;;;11.63;;
29422;SDS011;16399;51.686;8.684;2023-02-12T18:16:57;24.92;;;15.32;;
29422;SDS011;16399;51.686;8.684;2023-02-12T18:20:00;23.52;;;14.90;;
29422;SDS011;16399;51.686;8.684;2023-02-12T18:23:02;22.80;;;13.10;;
29422;SDS011;16399;51.686;8.684;2023-02-12T18:26:07;25.10;;;13.25;;
29422;SDS011;16399;51.686;8.684;2023-02-12T18:29:11;19.87;;;11.63;;
29422;SDS011;16399;51.686;8.684;2023-02-12T18:32:13;19.92;;;12.20;;
29422;SDS011;16399;51.686;8.684;2023-02-12T18:35:15;20.52;;;12.20;;
29422;SDS011;16399;51.686;8.684;2023-02-12T18:38:18;23.15;;;12.20;;
29422;SDS011;16399;51.686;8.684;2023-02-12T18:41:25;20.75;;;12.47;;
29422;SDS011;16399;51.686;8.684;2023-02-12T18:44:29;23.85;;;13.98;;
29422;SDS011;16399;51.686;8.684;2023-02-12T18:47:31;21.30;;;12.82;;
29422;SDS011;16399;51.686;8.684;2023-02-12T18:50:34;20.88;;;12.93;;
29422;SDS011;16399;51.686;8.684;2023-02-12T18:53:37;23.77;;;13.15;;
29422;SDS011;16399;51.686;8.684;2023-02-12T18:56:40;25.62;;;15.72;;
29422;SDS011;16399;51.686;8.684;2023-02-12T18:59:44;27.58;;;15.23;;
29422;SDS011;16399;51.686;8.684;2023-02-12T19:02:46;29.90;;;15.63;;
29422;SDS011;16399;51.686;8.684;2023-02-12T19:05:48;29.20;;;16.07;;
29422;SDS011;16399;51.686;8.684;2023-02-12T19:08:55;34.60;;;17.02;;
29422;SDS011;16399;51.686;8.684;2023-02-12T19:12:02;31.52;;;17.10;;
29422;SDS011;16399;51.686;8.684;2023-02-12T19:15:06;34.23;;;16.82;;
29422;SDS011;16399;51.686;8.684;2023-02-12T19:18:09;29.87;;;16.90;;
29422;SDS011;16399;51.686;8.684;2023-02-12T19:21:12;27.93;;;16.17;;
29422;SDS011;16399;51.686;8.684;2023-02-12T19:24:16;31.73;;;17.67;;
29422;SDS011;16399;51.686;8.684;2023-02-12T19:27:19;29.75;;;17.75;;
29422;SDS011;16399;51.686;8.684;2023-02-12T19:30:21;32.65;;;18.92;;
29422;SDS011;16399;51.686;8.684;2023-02-12T19:33:23;28.40;;;16.95;;
29422;SDS011;16399;51.686;8.684;2023-02-12T19:36:26;23.32;;;14.80;;
29422;SDS011;16399;51.686;8.684;2023-02-12T19:39:32;27.10;;;15.32;;
29422;SDS011;16399;51.686;8.684;2023-02-12T19:42:34;25.17;;;14.20;;
29422;SDS011;16399;51.686;8.684;2023-02-12T19:45:36;25.17;;;13.68;;
29422;SDS011;16399;51.686;8.684;2023-02-12T19:48:39;21.90;;;12.18;;
29422;SDS011;16399;51.686;8.684;2023-02-12T19:51:42;21.52;;;13.53;;
29422;SDS011;16399;51.686;8.684;2023-02-12T19:54:44;23.55;;;13.75;;
29422;SDS011;16399;51.686;8.684;2023-02-12T19:57:47;21.87;;;13.05;;
29422;SDS011;16399;51.686;8.684;2023-02-12T20:00:49;20.57;;;12.30;;
29422;SDS011;16399;51.686;8.684;2023-02-12T20:03:51;21.00;;;11.80;;
29422;SDS011;16399;51.686;8.684;2023-02-12T20:06:55;21.27;;;11.70;;
29422;SDS011;16399;51.686;8.684;2023-02-12T20:09:57;19.87;;;11.65;;
29422;SDS011;16399;51.686;8.684;2023-02-12T20:12:59;21.80;;;12.50;;